sensor_id;sensor_type;location;lat;lon;timestamp;pressure;altitude;pressure_sealevel;temperature;humidity
68366;BME280;55283;51.466;5.478;2023-04-25T00:00:19;100937.47;;;21.88;44.54
68366;BME280;55283;51.466;5.478;2023-04-25T00:02:45;100940.25;;;21.88;44.57
68366;BME280;55283;51.466;5.478;2023-04-25T00:05:11;100945.06;;;21.87;44.68
68366;BME280;55283;51.466;5.478;2023-04-25T00:07:37;100945.97;;;21.84;44.57
68366;BME280;55283;51.466;5.478;2023-04-25T00:10:03;100946.31;;;21.86;44.55
68366;BME280;55283;51.466;5.478;2023-04-25T00:12:29;100950.38;;;21.85;44.61
68366;BME280;55283;51.466;5.478;2023-04-25T00:14:55;100957.19;;;21.84;44.70
68366;BME280;55283;51.466;5.478;2023-04-25T00:17:22;100940.94;;;21.79;44.53
68366;BME280;55283;51.466;5.478;2023-04-25T00:19:50;100955.16;;;21.85;44.62
68366;BME280;55283;51.466;5.478;2023-04-25T00:22:15;100960.34;;;21.86;44.58
68366;BME280;55283;51.466;5.478;2023-04-25T00:24:41;100960.78;;;21.85;44.46
68366;BME280;55283;51.466;5.478;2023-04-25T00:27:06;100956.88;;;21.82;44.50
68366;BME280;55283;51.466;5.478;2023-04-25T00:29:32;100952.59;;;21.78;44.52
68366;BME280;55283;51.466;5.478;2023-04-25T00:31:57;100949.00;;;21.77;44.57
68366;BME280;55283;51.466;5.478;2023-04-25T00:34:22;100956.41;;;21.84;44.54
68366;BME280;55283;51.466;5.478;2023-04-25T00:36:49;100957.53;;;21.86;44.43
68366;BME280;55283;51.466;5.478;2023-04-25T00:39:14;100952.03;;;21.83;44.56
68366;BME280;55283;51.466;5.478;2023-04-25T00:41:40;100956.75;;;21.86;44.41
68366;BME280;55283;51.466;5.478;2023-04-25T00:44:08;100952.72;;;21.87;44.47
68366;BME280;55283;51.466;5.478;2023-04-25T00:46:36;100951.59;;;21.84;44.44
68366;BME280;55283;51.466;5.478;2023-04-25T00:49:02;100947.09;;;21.87;44.35
68366;BME280;55283;51.466;5.478;2023-04-25T00:51:27;100947.44;;;21.89;44.27
68366;BME280;55283;51.466;5.478;2023-04-25T00:53:53;100943.84;;;21.88;44.28
68366;BME280;55283;51.466;5.478;2023-04-25T00:56:20;100949.47;;;21.88;44.29
68366;BME280;55283;51.466;5.478;2023-04-25T00:58:47;100942.38;;;21.84;44.37
68366;BME280;55283;51.466;5.478;2023-04-25T01:01:13;100951.59;;;21.84;44.03
68366;BME280;55283;51.466;5.478;2023-04-25T01:03:39;100950.91;;;21.80;44.42
68366;BME280;55283;51.466;5.478;2023-04-25T01:06:09;100958.44;;;21.83;44.33
68366;BME280;55283;51.466;5.478;2023-04-25T01:08:36;100957.19;;;21.84;44.34
68366;BME280;55283;51.466;5.478;2023-04-25T01:11:02;100955.16;;;21.85;44.19
68366;BME280;55283;51.466;5.478;2023-04-25T01:13:28;100950.38;;;21.85;44.17
68366;BME280;55283;51.466;5.478;2023-04-25T01:15:54;100946.56;;;21.79;44.23
68366;BME280;55283;51.466;5.478;2023-04-25T01:18:20;100952.03;;;21.83;44.21
68366;BME280;55283;51.466;5.478;2023-04-25T01:20:46;100949.66;;;21.81;44.22
68366;BME280;55283;51.466;5.478;2023-04-25T01:23:14;100956.06;;;21.82;44.19
68366;BME280;55283;51.466;5.478;2023-04-25T01:25:40;100955.28;;;21.81;44.31
68366;BME280;55283;51.466;5.478;2023-04-25T01:28:05;100948.22;;;21.77;44.26
68366;BME280;55283;51.466;5.478;2023-04-25T01:30:31;100951.69;;;21.81;44.29
68366;BME280;55283;51.466;5.478;2023-04-25T01:32:57;100961.69;;;21.82;44.28
68366;BME280;55283;51.466;5.478;2023-04-25T01:35:22;100955.75;;;21.80;44.16
68366;BME280;55283;51.466;5.478;2023-04-25T01:37:49;100963.72;;;21.81;44.22
68366;BME280;55283;51.466;5.478;2023-04-25T01:40:17;100960.91;;;21.81;44.13
68366;BME280;55283;51.466;5.478;2023-04-25T01:42:44;100963.28;;;21.83;44.13
68366;BME280;55283;51.466;5.478;2023-04-25T01:45:10;100960.00;;;21.84;43.96
68366;BME280;55283;51.466;5.478;2023-04-25T01:47:36;100960.91;;;21.81;44.09
68366;BME280;55283;51.466;5.478;2023-04-25T01:50:04;100972.13;;;21.81;44.08
68366;BME280;55283;51.466;5.478;2023-04-25T01:52:29;100966.50;;;21.81;44.23
68366;BME280;55283;51.466;5.478;2023-04-25T01:54:57;100971.34;;;21.81;44.15
68366;BME280;55283;51.466;5.478;2023-04-25T01:57:22;100958.66;;;21.76;44.25
68366;BME280;55283;51.466;5.478;2023-04-25T01:59:48;100971.81;;;21.79;43.80
68366;BME280;55283;51.466;5.478;2023-04-25T02:02:14;100977.41;;;21.79;44.16
68366;BME280;55283;51.466;5.478;2023-04-25T02:04:40;100965.16;;;21.73;44.03
68366;BME280;55283;51.466;5.478;2023-04-25T02:07:05;100974.25;;;21.77;44.00
68366;BME280;55283;51.466;5.478;2023-04-25T02:09:30;100963.34;;;21.66;44.16
68366;BME280;55283;51.466;5.478;2023-04-25T02:11:57;100979.53;;;21.75;44.14
68366;BME280;55283;51.466;5.478;2023-04-25T02:14:23;100982.34;;;21.75;44.15
68366;BME280;55283;51.466;5.478;2023-04-25T02:16:48;100984.72;;;21.77;44.01
68366;BME280;55283;51.466;5.478;2023-04-25T02:19:14;100981.97;;;21.73;43.95
68366;BME280;55283;51.466;5.478;2023-04-25T02:21:40;100980.44;;;21.72;44.11
68366;BME280;55283;51.466;5.478;2023-04-25T02:24:05;100986.38;;;21.74;44.23
68366;BME280;55283;51.466;5.478;2023-04-25T02:26:31;100986.38;;;21.74;44.21
68366;BME280;55283;51.466;5.478;2023-04-25T02:28:57;100974.94;;;21.68;44.07
68366;BME280;55283;51.466;5.478;2023-04-25T02:31:22;100985.91;;;21.76;44.15
68366;BME280;55283;51.466;5.478;2023-04-25T02:33:48;100984.34;;;21.75;44.13
68366;BME280;55283;51.466;5.478;2023-04-25T02:36:13;100978.50;;;21.69;44.11
68366;BME280;55283;51.466;5.478;2023-04-25T02:38:38;100996.81;;;21.74;44.23
68366;BME280;55283;51.466;5.478;2023-04-25T02:41:04;100988.50;;;21.70;44.24
68366;BME280;55283;51.466;5.478;2023-04-25T02:43:29;100989.84;;;21.65;44.30
68366;BME280;55283;51.466;5.478;2023-04-25T02:45:55;100993.31;;;21.69;44.11
68366;BME280;55283;51.466;5.478;2023-04-25T02:48:20;100996.13;;;21.69;44.26
68366;BME280;55283;51.466;5.478;2023-04-25T02:50:46;100992.53;;;21.69;44.06
68366;BME280;55283;51.466;5.478;2023-04-25T02:53:11;100995.34;;;21.69;44.06
68366;BME280;55283;51.466;5.478;2023-04-25T02:55:37;100987.72;;;21.69;44.23
68366;BME280;55283;51.466;5.478;2023-04-25T02:58:02;100986.16;;;21.68;44.11
68366;BME280;55283;51.466;5.478;2023-04-25T03:00:28;100987.38;;;21.67;43.91
68366;BME280;55283;51.466;5.478;2023-04-25T03:02:53;100990.88;;;21.72;44.29
68366;BME280;55283;51.466;5.478;2023-04-25T03:05:19;100985.38;;;21.68;44.03
68366;BME280;55283;51.466;5.478;2023-04-25T03:07:44;100982.88;;;21.70;44.06
68366;BME280;55283;51.466;5.478;2023-04-25T03:10:11;100991.06;;;21.64;44.38
68366;BME280;55283;51.466;5.478;2023-04-25T03:12:36;101002.19;;;21.68;44.13
68366;BME280;55283;51.466;5.478;2023-04-25T03:15:03;100991.41;;;21.66;44.11
68366;BME280;55283;51.466;5.478;2023-04-25T03:17:29;101003.41;;;21.67;44.11
68366;BME280;55283;51.466;5.478;2023-04-25T03:19:55;100998.50;;;21.71;44.02
68366;BME280;55283;51.466;5.478;2023-04-25T03:22:20;100993.44;;;21.66;44.06
68366;BME280;55283;51.466;5.478;2023-04-25T03:24:46;100996.91;;;21.70;43.99
68366;BME280;55283;51.466;5.478;2023-04-25T03:27:12;101004.53;;;21.69;44.06
68366;BME280;55283;51.466;5.478;2023-04-25T03:29:38;100998.38;;;21.62;44.16
68366;BME280;55283;51.466;5.478;2023-04-25T03:32:03;101007.81;;;21.68;44.05
68366;BME280;55283;51.466;5.478;2023-04-25T03:34:28;101007.81;;;21.68;43.99
68366;BME280;55283;51.466;5.478;2023-04-25T03:36:54;101002.97;;;21.68;44.07
68366;BME280;55283;51.466;5.478;2023-04-25T03:39:20;101007.81;;;21.68;44.06
68366;BME280;55283;51.466;5.478;2023-04-25T03:41:46;101000.72;;;21.63;44.10
68366;BME280;55283;51.466;5.478;2023-04-25T03:44:12;101006.78;;;21.62;44.08
68366;BME280;55283;51.466;5.478;2023-04-25T03:46:37;101014.63;;;21.67;44.18
68366;BME280;55283;51.466;5.478;2023-04-25T03:49:03;101007.81;;;21.68;43.81
68366;BME280;55283;51.466;5.478;2023-04-25T03:51:28;100999.03;;;21.66;44.06
68366;BME280;55283;51.466;5.478;2023-04-25T03:53:54;101003.75;;;21.69;44.08
68366;BME280;55283;51.466;5.478;2023-04-25T03:56:19;101007.81;;;21.68;43.91
68366;BME280;55283;51.466;5.478;2023-04-25T03:58:45;101002.63;;;21.66;44.07
68366;BME280;55283;51.466;5.478;2023-04-25T04:01:11;101014.31;;;21.65;43.96
68366;BME280;55283;51.466;5.478;2023-04-25T04:03:36;101015.88;;;21.66;44.11
68366;BME280;55283;51.466;5.478;2023-04-25T04:06:06;101016.22;;;21.68;44.16
68366;BME280;55283;51.466;5.478;2023-04-25T04:08:32;101009.91;;;21.64;43.99
68366;BME280;55283;51.466;5.478;2023-04-25T04:10:58;101013.06;;;21.66;43.99
68366;BME280;55283;51.466;5.478;2023-04-25T04:13:26;101023.88;;;21.67;43.96
68366;BME280;55283;51.466;5.478;2023-04-25T04:15:52;101022.28;;;21.66;44.30
68366;BME280;55283;51.466;5.478;2023-04-25T04:18:17;101027.53;;;21.64;44.07
68366;BME280;55283;51.466;5.478;2023-04-25T04:20:43;101027.53;;;21.64;44.08
68366;BME280;55283;51.466;5.478;2023-04-25T04:23:08;101023.94;;;21.64;44.00
68366;BME280;55283;51.466;5.478;2023-04-25T04:25:33;101028.00;;;21.63;43.94
68366;BME280;55283;51.466;5.478;2023-04-25T04:27:59;101025.53;;;21.65;43.94
68366;BME280;55283;51.466;5.478;2023-04-25T04:30:26;101025.63;;;21.61;43.89
68366;BME280;55283;51.466;5.478;2023-04-25T04:32:55;101038.75;;;21.64;44.04
68366;BME280;55283;51.466;5.478;2023-04-25T04:35:21;101042.38;;;21.65;43.81
68366;BME280;55283;51.466;5.478;2023-04-25T04:37:46;101040.78;;;21.64;44.03
68366;BME280;55283;51.466;5.478;2023-04-25T04:40:14;101046.38;;;21.64;43.81
68366;BME280;55283;51.466;5.478;2023-04-25T04:42:41;101046.84;;;21.62;43.94
68366;BME280;55283;51.466;5.478;2023-04-25T04:45:07;101046.84;;;21.62;44.00
68366;BME280;55283;51.466;5.478;2023-04-25T04:47:33;101042.91;;;21.60;43.97
68366;BME280;55283;51.466;5.478;2023-04-25T04:49:59;101050.19;;;21.57;43.96
68366;BME280;55283;51.466;5.478;2023-04-25T04:52:24;101048.53;;;21.60;44.08
68366;BME280;55283;51.466;5.478;2023-04-25T04:54:50;101057.72;;;21.60;44.15
68366;BME280;55283;51.466;5.478;2023-04-25T04:57:15;101054.66;;;21.55;44.15
68366;BME280;55283;51.466;5.478;2023-04-25T04:59:41;101063.22;;;21.64;43.94
68366;BME280;55283;51.466;5.478;2023-04-25T05:02:07;101068.94;;;21.60;44.04
68366;BME280;55283;51.466;5.478;2023-04-25T05:04:32;101072.88;;;21.63;44.09
68366;BME280;55283;51.466;5.478;2023-04-25T05:06:58;101077.72;;;21.62;44.03
68366;BME280;55283;51.466;5.478;2023-04-25T05:09:23;101084.88;;;21.63;43.94
68366;BME280;55283;51.466;5.478;2023-04-25T05:11:52;101087.78;;;21.60;43.85
68366;BME280;55283;51.466;5.478;2023-04-25T05:14:17;101087.78;;;21.60;43.97
68366;BME280;55283;51.466;5.478;2023-04-25T05:16:43;101080.94;;;21.61;43.93
68366;BME280;55283;51.466;5.478;2023-04-25T05:19:08;101084.22;;;21.59;43.97
68366;BME280;55283;51.466;5.478;2023-04-25T05:21:34;101090.50;;;21.63;43.94
68366;BME280;55283;51.466;5.478;2023-04-25T05:24:00;101098.91;;;21.63;43.88
68366;BME280;55283;51.466;5.478;2023-04-25T05:26:26;101092.06;;;21.64;43.88
68366;BME280;55283;51.466;5.478;2023-04-25T05:28:56;101107.31;;;21.63;43.86
68366;BME280;55283;51.466;5.478;2023-04-25T05:31:22;101109.34;;;21.63;44.17
68366;BME280;55283;51.466;5.478;2023-04-25T05:33:47;101109.34;;;21.63;44.00
68366;BME280;55283;51.466;5.478;2023-04-25T05:36:12;101101.13;;;21.56;44.22
68366;BME280;55283;51.466;5.478;2023-04-25T05:38:38;101097.00;;;21.60;44.17
68366;BME280;55283;51.466;5.478;2023-04-25T05:41:03;101105.94;;;21.55;44.62
68366;BME280;55283;51.466;5.478;2023-04-25T05:43:29;101112.00;;;21.54;44.77
68366;BME280;55283;51.466;5.478;2023-04-25T05:45:54;101108.16;;;21.47;45.21
68366;BME280;55283;51.466;5.478;2023-04-25T05:48:20;101108.84;;;21.52;45.17
68366;BME280;55283;51.466;5.478;2023-04-25T05:50:45;101112.00;;;21.54;45.14
68366;BME280;55283;51.466;5.478;2023-04-25T05:53:10;101115.84;;;21.60;45.37
68366;BME280;55283;51.466;5.478;2023-04-25T05:55:36;101125.66;;;21.68;44.77
68366;BME280;55283;51.466;5.478;2023-04-25T05:58:01;101124.28;;;21.73;44.68
68366;BME280;55283;51.466;5.478;2023-04-25T06:00:27;101129.66;;;21.67;44.90
68366;BME280;55283;51.466;5.478;2023-04-25T06:02:52;101138.63;;;21.62;45.13
68366;BME280;55283;51.466;5.478;2023-04-25T06:05:18;101139.44;;;21.62;45.39
68366;BME280;55283;51.466;5.478;2023-04-25T06:07:43;101145.19;;;21.72;46.05
68366;BME280;55283;51.466;5.478;2023-04-25T06:10:09;101147.78;;;21.79;45.96
68366;BME280;55283;51.466;5.478;2023-04-25T06:12:35;101144.09;;;21.82;45.35
68366;BME280;55283;51.466;5.478;2023-04-25T06:15:00;101141.72;;;21.80;46.23
68366;BME280;55283;51.466;5.478;2023-04-25T06:17:26;101151.97;;;21.87;46.32
68366;BME280;55283;51.466;5.478;2023-04-25T06:19:51;101159.16;;;21.88;45.32
68366;BME280;55283;51.466;5.478;2023-04-25T06:22:17;101153.78;;;21.64;40.99
68366;BME280;55283;51.466;5.478;2023-04-25T06:24:42;101144.91;;;21.37;39.18
68366;BME280;55283;51.466;5.478;2023-04-25T06:27:08;101151.75;;;21.19;36.62
68366;BME280;55283;51.466;5.478;2023-04-25T06:29:33;101157.53;;;21.12;36.25
68366;BME280;55283;51.466;5.478;2023-04-25T06:31:59;101154.25;;;20.97;35.68
68366;BME280;55283;51.466;5.478;2023-04-25T06:34:24;101157.25;;;20.90;34.81
68366;BME280;55283;51.466;5.478;2023-04-25T06:36:50;101166.91;;;20.89;34.65
68366;BME280;55283;51.466;5.478;2023-04-25T06:39:15;101157.22;;;20.74;33.67
68366;BME280;55283;51.466;5.478;2023-04-25T06:41:41;101152.31;;;20.62;33.56
68366;BME280;55283;51.466;5.478;2023-04-25T06:44:07;101139.63;;;20.57;33.35
68366;BME280;55283;51.466;5.478;2023-04-25T06:46:32;101173.44;;;20.83;33.41
68366;BME280;55283;51.466;5.478;2023-04-25T06:48:57;101168.00;;;20.92;35.11
68366;BME280;55283;51.466;5.478;2023-04-25T06:51:23;101175.81;;;21.00;35.74
68366;BME280;55283;51.466;5.478;2023-04-25T06:53:49;101185.28;;;21.07;36.94
68366;BME280;55283;51.466;5.478;2023-04-25T06:56:15;101186.28;;;21.16;38.17
68366;BME280;55283;51.466;5.478;2023-04-25T06:58:41;101183.56;;;21.29;38.15
68366;BME280;55283;51.466;5.478;2023-04-25T07:01:06;101178.47;;;21.40;38.04
68366;BME280;55283;51.466;5.478;2023-04-25T07:03:32;101178.72;;;21.46;38.05
68366;BME280;55283;51.466;5.478;2023-04-25T07:05:57;101183.28;;;21.56;38.13
68366;BME280;55283;51.466;5.478;2023-04-25T07:08:23;101184.75;;;21.61;38.17
68366;BME280;55283;51.466;5.478;2023-04-25T07:10:48;101180.38;;;21.60;38.18
68366;BME280;55283;51.466;5.478;2023-04-25T07:13:14;101178.59;;;21.66;38.48
68366;BME280;55283;51.466;5.478;2023-04-25T07:15:39;101175.78;;;21.66;38.58
68366;BME280;55283;51.466;5.478;2023-04-25T07:18:04;101187.63;;;21.74;38.84
68366;BME280;55283;51.466;5.478;2023-04-25T07:20:30;101190.84;;;21.72;38.38
68366;BME280;55283;51.466;5.478;2023-04-25T07:22:56;101190.69;;;21.79;38.61
68366;BME280;55283;51.466;5.478;2023-04-25T07:25:22;101191.72;;;21.85;38.78
68366;BME280;55283;51.466;5.478;2023-04-25T07:27:47;101200.44;;;21.87;38.65
68366;BME280;55283;51.466;5.478;2023-04-25T07:30:13;101205.13;;;21.94;38.71
68366;BME280;55283;51.466;5.478;2023-04-25T07:32:39;101210.09;;;22.03;38.75
68366;BME280;55283;51.466;5.478;2023-04-25T07:35:05;101211.25;;;22.05;38.62
68366;BME280;55283;51.466;5.478;2023-04-25T07:37:32;101210.78;;;22.07;38.55
68366;BME280;55283;51.466;5.478;2023-04-25T07:39:58;101209.91;;;22.10;38.80
68366;BME280;55283;51.466;5.478;2023-04-25T07:42:23;101203.84;;;22.11;38.78
68366;BME280;55283;51.466;5.478;2023-04-25T07:44:49;101216.44;;;22.20;39.01
68366;BME280;55283;51.466;5.478;2023-04-25T07:47:15;101223.19;;;22.22;39.05
68366;BME280;55283;51.466;5.478;2023-04-25T07:49:40;101221.84;;;22.27;38.93
68366;BME280;55283;51.466;5.478;2023-04-25T07:52:06;101231.06;;;22.27;39.14
68366;BME280;55283;51.466;5.478;2023-04-25T07:54:31;101227.47;;;22.27;39.27
68366;BME280;55283;51.466;5.478;2023-04-25T07:56:57;101228.00;;;22.22;39.25
68366;BME280;55283;51.466;5.478;2023-04-25T07:59:23;101230.47;;;22.20;39.45
68366;BME280;55283;51.466;5.478;2023-04-25T08:01:49;101235.66;;;22.21;39.73
68366;BME280;55283;51.466;5.478;2023-04-25T08:04:15;101241.50;;;22.27;39.74
68366;BME280;55283;51.466;5.478;2023-04-25T08:06:42;101245.47;;;22.29;39.79
68366;BME280;55283;51.466;5.478;2023-04-25T08:09:08;101247.13;;;22.27;39.59
68366;BME280;55283;51.466;5.478;2023-04-25T08:11:35;101252.28;;;22.28;39.76
68366;BME280;55283;51.466;5.478;2023-04-25T08:14:01;101252.28;;;22.28;39.99
68366;BME280;55283;51.466;5.478;2023-04-25T08:16:27;101257.47;;;22.30;40.00
68366;BME280;55283;51.466;5.478;2023-04-25T08:18:52;101246.66;;;22.28;40.08
68366;BME280;55283;51.466;5.478;2023-04-25T08:21:18;101254.78;;;22.26;40.17
68366;BME280;55283;51.466;5.478;2023-04-25T08:23:43;101263.44;;;22.32;40.06
68366;BME280;55283;51.466;5.478;2023-04-25T08:26:08;101273.19;;;22.27;40.03
68366;BME280;55283;51.466;5.478;2023-04-25T08:28:34;101259.16;;;22.27;40.07
68366;BME280;55283;51.466;5.478;2023-04-25T08:30:59;101268.47;;;22.24;39.82
68366;BME280;55283;51.466;5.478;2023-04-25T08:33:25;101266.97;;;22.20;39.46
68366;BME280;55283;51.466;5.478;2023-04-25T08:35:51;101280.38;;;22.28;39.88
68366;BME280;55283;51.466;5.478;2023-04-25T08:38:17;101288.38;;;22.30;40.05
68366;BME280;55283;51.466;5.478;2023-04-25T08:40:43;101286.88;;;22.25;39.91
68366;BME280;55283;51.466;5.478;2023-04-25T08:43:09;101288.00;;;22.28;39.94
68366;BME280;55283;51.466;5.478;2023-04-25T08:45:39;101289.59;;;22.29;39.99
68366;BME280;55283;51.466;5.478;2023-04-25T08:48:11;101290.81;;;22.28;40.10
68366;BME280;55283;51.466;5.478;2023-04-25T08:50:45;101289.34;;;22.23;40.05
68366;BME280;55283;51.466;5.478;2023-04-25T08:53:12;101296.19;;;22.22;40.11
68366;BME280;55283;51.466;5.478;2023-04-25T08:55:41;101297.31;;;22.25;40.29
68366;BME280;55283;51.466;5.478;2023-04-25T08:58:07;101302.84;;;22.28;40.08
68366;BME280;55283;51.466;5.478;2023-04-25T09:00:34;101305.66;;;22.28;40.28
68366;BME280;55283;51.466;5.478;2023-04-25T09:02:59;101317.13;;;22.34;40.24
68366;BME280;55283;51.466;5.478;2023-04-25T09:05:25;101322.31;;;22.35;40.11
68366;BME280;55283;51.466;5.478;2023-04-25T09:07:51;101324.25;;;22.38;40.09
68366;BME280;55283;51.466;5.478;2023-04-25T09:10:16;101328.19;;;22.41;40.19
68366;BME280;55283;51.466;5.478;2023-04-25T09:12:42;101347.50;;;22.39;40.29
68366;BME280;55283;51.466;5.478;2023-04-25T09:15:12;101345.13;;;22.37;40.60
68366;BME280;55283;51.466;5.478;2023-04-25T09:17:41;101344.69;;;22.39;40.36
68366;BME280;55283;51.466;5.478;2023-04-25T09:20:11;101345.94;;;22.38;40.63
68366;BME280;55283;51.466;5.478;2023-04-25T09:22:38;101357.47;;;22.40;40.29
68366;BME280;55283;51.466;5.478;2023-04-25T09:25:09;101361.44;;;22.43;40.13
68366;BME280;55283;51.466;5.478;2023-04-25T09:27:34;101347.94;;;22.37;40.55
68366;BME280;55283;51.466;5.478;2023-04-25T09:30:01;101360.28;;;22.40;40.59
68366;BME280;55283;51.466;5.478;2023-04-25T09:32:27;101356.69;;;22.40;40.56
68366;BME280;55283;51.466;5.478;2023-04-25T09:34:54;101366.78;;;22.37;40.64
68366;BME280;55283;51.466;5.478;2023-04-25T09:37:22;101358.13;;;22.31;40.79
68366;BME280;55283;51.466;5.478;2023-04-25T09:39:50;101360.50;;;22.33;40.63
68366;BME280;55283;51.466;5.478;2023-04-25T09:42:16;101369.72;;;22.33;40.91
68366;BME280;55283;51.466;5.478;2023-04-25T09:44:45;101347.97;;;22.21;40.79
68366;BME280;55283;51.466;5.478;2023-04-25T09:47:15;101362.88;;;22.34;41.29
68366;BME280;55283;51.466;5.478;2023-04-25T09:49:43;101373.22;;;22.37;41.31
68366;BME280;55283;51.466;5.478;2023-04-25T09:52:20;101367.25;;;22.35;41.10
68366;BME280;55283;51.466;5.478;2023-04-25T09:54:47;101367.69;;;22.34;41.09
68366;BME280;55283;51.466;5.478;2023-04-25T09:57:16;101365.69;;;22.34;41.39
68366;BME280;55283;51.466;5.478;2023-04-25T09:59:47;101368.03;;;22.36;41.42
68366;BME280;55283;51.466;5.478;2023-04-25T10:02:15;101368.81;;;22.36;41.23
68366;BME280;55283;51.466;5.478;2023-04-25T10:04:41;101367.00;;;22.30;40.97
68366;BME280;55283;51.466;5.478;2023-04-25T10:07:10;101367.78;;;22.30;41.13
68366;BME280;55283;51.466;5.478;2023-04-25T10:09:37;101348.97;;;22.14;41.12
68366;BME280;55283;51.466;5.478;2023-04-25T10:12:05;101376.31;;;22.27;41.33
68366;BME280;55283;51.466;5.478;2023-04-25T10:14:32;101372.91;;;22.19;41.34
68366;BME280;55283;51.466;5.478;2023-04-25T10:16:58;101372.78;;;22.23;41.84
68366;BME280;55283;51.466;5.478;2023-04-25T10:19:25;101374.19;;;22.31;41.54
68366;BME280;55283;51.466;5.478;2023-04-25T10:24:36;101372.41;;;22.37;41.40
68366;BME280;55283;51.466;5.478;2023-04-25T10:27:03;101374.13;;;22.34;42.21
68366;BME280;55283;51.466;5.478;2023-04-25T10:29:29;101379.28;;;22.36;42.03
68366;BME280;55283;51.466;5.478;2023-04-25T10:31:55;101381.72;;;22.34;42.05
68366;BME280;55283;51.466;5.478;2023-04-25T10:34:24;101378.34;;;22.26;43.28
68366;BME280;55283;51.466;5.478;2023-04-25T10:37:02;101378.66;;;22.28;42.95
68366;BME280;55283;51.466;5.478;2023-04-25T10:39:28;101376.94;;;22.34;43.34
68366;BME280;55283;51.466;5.478;2023-04-25T10:41:57;101382.19;;;22.32;43.74
68366;BME280;55283;51.466;5.478;2023-04-25T10:44:27;101375.31;;;22.33;43.23
68366;BME280;55283;51.466;5.478;2023-04-25T10:46:58;101395.13;;;22.43;43.13
68366;BME280;55283;51.466;5.478;2023-04-25T10:49:32;101385.94;;;22.42;42.98
68366;BME280;55283;51.466;5.478;2023-04-25T10:52:12;101384.25;;;22.45;42.71
68366;BME280;55283;51.466;5.478;2023-04-25T10:54:48;101382.13;;;22.49;42.68
68366;BME280;55283;51.466;5.478;2023-04-25T11:02:27;101387.22;;;22.54;42.50
68366;BME280;55283;51.466;5.478;2023-04-25T11:04:54;101387.56;;;22.56;42.34
68366;BME280;55283;51.466;5.478;2023-04-25T11:07:32;101379.25;;;22.52;42.43
68366;BME280;55283;51.466;5.478;2023-04-25T11:10:02;101379.03;;;22.59;42.31
68366;BME280;55283;51.466;5.478;2023-04-25T11:12:30;101379.38;;;22.62;42.31
68366;BME280;55283;51.466;5.478;2023-04-25T11:15:03;101381.00;;;22.63;42.20
68366;BME280;55283;51.466;5.478;2023-04-25T11:17:29;101371.41;;;22.60;42.20
68366;BME280;55283;51.466;5.478;2023-04-25T11:19:55;101385.72;;;22.66;42.08
68366;BME280;55283;51.466;5.478;2023-04-25T11:22:22;101394.84;;;22.70;41.97
68366;BME280;55283;51.466;5.478;2023-04-25T11:24:47;101399.78;;;22.66;41.97
68366;BME280;55283;51.466;5.478;2023-04-25T11:27:13;101399.34;;;22.67;41.98
68366;BME280;55283;51.466;5.478;2023-04-25T11:29:38;101406.88;;;22.70;41.92
68366;BME280;55283;51.466;5.478;2023-04-25T11:32:04;101412.94;;;22.69;41.96
68366;BME280;55283;51.466;5.478;2023-04-25T11:34:31;101417.78;;;22.68;41.89
68366;BME280;55283;51.466;5.478;2023-04-25T11:36:58;101415.31;;;22.70;41.74
68366;BME280;55283;51.466;5.478;2023-04-25T11:39:25;101423.84;;;22.67;41.97
68366;BME280;55283;51.466;5.478;2023-04-25T11:41:52;101423.91;;;22.63;42.16
68366;BME280;55283;51.466;5.478;2023-04-25T11:44:18;101427.59;;;22.60;41.92
68366;BME280;55283;51.466;5.478;2023-04-25T11:46:45;101433.41;;;22.53;41.77
68366;BME280;55283;51.466;5.478;2023-04-25T11:49:10;101437.00;;;22.53;42.25
68366;BME280;55283;51.466;5.478;2023-04-25T11:51:44;101436.22;;;22.53;42.29
68366;BME280;55283;51.466;5.478;2023-04-25T11:54:10;101435.22;;;22.59;41.98
68366;BME280;55283;51.466;5.478;2023-04-25T11:56:37;101431.91;;;22.65;41.79
68366;BME280;55283;51.466;5.478;2023-04-25T11:59:04;101425.59;;;22.60;41.92
68366;BME280;55283;51.466;5.478;2023-04-25T12:01:32;101423.41;;;22.52;41.98
68366;BME280;55283;51.466;5.478;2023-04-25T12:03:58;101426.56;;;22.54;42.13
68366;BME280;55283;51.466;5.478;2023-04-25T12:06:27;101431.22;;;22.60;42.06
68366;BME280;55283;51.466;5.478;2023-04-25T12:09:04;101424.88;;;22.56;42.08
68366;BME280;55283;51.466;5.478;2023-04-25T12:11:39;101426.81;;;22.59;41.89
68366;BME280;55283;51.466;5.478;2023-04-25T12:14:06;101434.81;;;22.61;41.82
68366;BME280;55283;51.466;5.478;2023-04-25T12:16:44;101429.81;;;22.52;42.08
68366;BME280;55283;51.466;5.478;2023-04-25T12:19:14;101436.91;;;22.57;42.05
68366;BME280;55283;51.466;5.478;2023-04-25T12:21:40;101433.22;;;22.60;42.11
68366;BME280;55283;51.466;5.478;2023-04-25T12:24:12;101435.16;;;22.63;42.21
68366;BME280;55283;51.466;5.478;2023-04-25T12:26:58;101435.69;;;22.58;42.09
68366;BME280;55283;51.466;5.478;2023-04-25T12:29:25;101438.31;;;22.65;41.92
68366;BME280;55283;51.466;5.478;2023-04-25T12:31:52;101443.94;;;22.65;41.92
68366;BME280;55283;51.466;5.478;2023-04-25T12:34:19;101443.94;;;22.65;42.04
68366;BME280;55283;51.466;5.478;2023-04-25T12:36:45;101442.81;;;22.63;41.93
68366;BME280;55283;51.466;5.478;2023-04-25T12:39:17;101436.84;;;22.60;42.06
68366;BME280;55283;51.466;5.478;2023-04-25T12:41:44;101426.72;;;22.63;42.08
68366;BME280;55283;51.466;5.478;2023-04-25T12:44:11;101444.81;;;22.62;42.09
68366;BME280;55283;51.466;5.478;2023-04-25T12:46:37;101438.50;;;22.58;42.00
68366;BME280;55283;51.466;5.478;2023-04-25T12:49:03;101443.94;;;22.65;42.23
68366;BME280;55283;51.466;5.478;2023-04-25T12:51:29;101442.72;;;22.66;41.89
68366;BME280;55283;51.466;5.478;2023-04-25T12:53:55;101442.00;;;22.62;41.99